Time;durP1;ratioP1;P1;durP2;ratioP2;P2;SDS_P1;SDS_P2;PMS_P1;PMS_P2;Temp;Humidity;BMP_temperature;BMP_pressure;BME280_temperature;BME280_humidity;BME280_pressure;Samples;Min_cycle;Max_cycle;Signal;HPM_P1;HPM_P2
2023/12/13 00:00:32;;;;;;;2.50;0.60;;;;;;;5.90;100.00;91719.19;2099006;28;20512;-80
2023/12/13 00:01:33;;;;;;;1.58;0.40;;;;;;;5.88;100.00;91712.81;2089845;28;20032;-79
2023/12/13 00:02:34;;;;;;;0.85;0.52;;;;;;;5.84;100.00;91704.22;2089942;28;20112;-79
2023/12/13 00:03:35;;;;;;;1.45;0.70;;;;;;;5.83;100.00;91700.81;2097973;28;20047;-79
2023/12/13 00:04:36;;;;;;;3.05;0.80;;;;;;;5.80;100.00;91699.03;2097843;28;20032;-78
2023/12/13 00:05:37;;;;;;;1.17;0.60;;;;;;;5.76;100.00;91698.38;2105944;28;20028;-79
2023/12/13 00:06:38;;;;;;;0.68;0.60;;;;;;;5.74;100.00;91693.47;2115394;28;20430;-80
2023/12/13 00:07:39;;;;;;;0.77;0.45;;;;;;;5.77;100.00;91686.59;2106004;28;20031;-78
2023/12/13 00:08:40;;;;;;;2.03;0.47;;;;;;;5.79;100.00;91682.38;2101498;28;20032;-81
2023/12/13 00:09:41;;;;;;;1.00;0.50;;;;;;;5.81;100.00;91684.59;2106477;28;20362;-80
2023/12/13 00:10:42;;;;;;;0.80;0.60;;;;;;;5.84;100.00;91681.13;2089672;28;20049;-78
2023/12/13 00:11:43;;;;;;;1.05;0.80;;;;;;;5.74;100.00;91685.53;2081527;28;20025;-80
2023/12/13 00:12:44;;;;;;;0.80;0.70;;;;;;;5.71;100.00;91680.34;2081524;28;20124;-79
2023/12/13 00:13:46;;;;;;;2.95;1.10;;;;;;;5.68;100.00;91679.25;2089746;28;20025;-78
2023/12/13 00:14:47;;;;;;;2.42;1.40;;;;;;;5.63;100.00;91679.03;2097911;28;20063;-80
2023/12/13 00:15:47;;;;;;;1.73;0.70;;;;;;;5.61;100.00;91684.72;2097910;28;20019;-79
2023/12/13 00:16:48;;;;;;;1.45;0.80;;;;;;;5.64;100.00;91680.50;2089866;28;20021;-78
2023/12/13 00:17:50;;;;;;;0.70;0.60;;;;;;;5.62;100.00;91683.59;2098714;28;20047;-79
2023/12/13 00:18:51;;;;;;;2.78;0.65;;;;;;;5.60;100.00;91677.22;2115384;28;20031;-80
2023/12/13 00:19:51;;;;;;;1.58;0.40;;;;;;;5.60;100.00;91682.50;2105039;28;20795;-78
2023/12/13 00:20:52;;;;;;;0.50;0.50;;;;;;;5.67;100.00;91674.38;2102674;28;20024;-80
2023/12/13 00:21:53;;;;;;;1.15;0.70;;;;;;;5.63;100.00;91676.38;2115071;28;20031;-79
2023/12/13 00:22:55;;;;;;;1.45;0.45;;;;;;;5.69;100.00;91674.69;2106042;28;20440;-80
2023/12/13 00:23:56;;;;;;;1.55;0.50;;;;;;;5.65;100.00;91679.34;2106436;28;20020;-78
2023/12/13 00:24:57;;;;;;;0.50;0.50;;;;;;;5.73;100.00;91678.00;2097777;28;20054;-80
2023/12/13 00:25:58;;;;;;;0.75;0.40;;;;;;;5.73;100.00;91675.34;2089645;28;20067;-79
2023/12/13 00:26:59;;;;;;;0.35;0.30;;;;;;;5.72;100.00;91685.22;2097779;28;20024;-79
2023/12/13 00:28:00;;;;;;;1.10;0.40;;;;;;;5.74;100.00;91680.22;2089362;28;20032;-79
2023/12/13 00:29:01;;;;;;;0.77;0.30;;;;;;;5.74;100.00;91674.91;2089523;28;20025;-80
2023/12/13 00:30:03;;;;;;;0.50;0.40;;;;;;;5.66;100.00;91680.81;2106329;28;20020;-80
2023/12/13 00:31:05;;;;;;;0.82;0.40;;;;;;;5.65;100.00;91679.34;2106154;28;20435;-79
2023/12/13 00:32:06;;;;;;;0.95;0.30;;;;;;;5.67;100.00;91675.13;2106060;28;20337;-79
2023/12/13 00:33:07;;;;;;;0.82;0.20;;;;;;;5.59;100.00;91670.44;2106229;28;20036;-78
2023/12/13 00:34:08;;;;;;;3.15;0.40;;;;;;;5.63;100.00;91671.81;2089440;28;20029;-79
2023/12/13 00:35:09;;;;;;;0.52;0.30;;;;;;;5.59;100.00;91663.22;2097657;28;20021;-78
2023/12/13 00:36:10;;;;;;;0.25;0.25;;;;;;;5.63;100.00;91655.19;2097770;28;20040;-78
2023/12/13 00:37:11;;;;;;;2.33;0.35;;;;;;;5.64;100.00;91660.06;2104671;28;20095;-79
2023/12/13 00:38:12;;;;;;;0.90;0.30;;;;;;;5.71;100.00;91664.44;2097554;28;20028;-79
2023/12/13 00:39:13;;;;;;;1.20;0.40;;;;;;;5.65;100.00;91656.22;2097943;28;20508;-79
2023/12/13 00:40:18;;;;;;;0.80;0.40;;;;;;;5.69;100.00;91661.44;2097943;28;20024;-79
2023/12/13 00:41:19;;;;;;;0.40;0.28;;;;;;;5.73;100.00;91662.84;2089532;28;20044;-77
2023/12/13 00:42:22;;;;;;;0.20;0.20;;;;;;;5.74;100.00;91663.56;2082018;28;20488;-79
2023/12/13 00:43:23;;;;;;;0.20;0.20;;;;;;;6.10;100.00;91665.25;2089309;28;20021;-78
2023/12/13 00:44:24;;;;;;;2.55;0.22;;;;;;;6.04;100.00;91663.13;2097635;28;20362;-79
2023/12/13 00:45:25;;;;;;;0.98;0.20;;;;;;;6.01;100.00;91660.56;2106707;28;20023;-81
2023/12/13 00:46:26;;;;;;;0.98;0.20;;;;;;;6.29;100.00;91661.69;2097780;28;20041;-80
2023/12/13 00:47:27;;;;;;;0.70;0.30;;;;;;;6.29;100.00;91651.06;2097564;28;20055;-80
2023/12/13 00:48:28;;;;;;;2.17;0.25;;;;;;;6.17;100.00;91655.19;2097905;28;20133;-77
2023/12/13 00:49:29;;;;;;;2.17;0.50;;;;;;;6.17;100.00;91638.53;2097613;28;20074;-77
2023/12/13 00:50:30;;;;;;;0.90;0.40;;;;;;;6.08;100.00;91641.06;2086125;28;20045;-81
2023/12/13 00:51:31;;;;;;;0.40;0.20;;;;;;;6.13;100.00;91640.53;2096060;28;20024;-78
2023/12/13 00:52:32;;;;;;;0.63;0.20;;;;;;;6.24;100.00;91633.03;2097578;28;20094;-80
2023/12/13 00:53:33;;;;;;;0.43;0.20;;;;;;;6.34;100.00;91639.19;2097283;28;20067;-79
2023/12/13 00:54:34;;;;;;;0.17;0.17;;;;;;;6.26;100.00;91630.69;2081119;28;20081;-79
2023/12/13 00:55:35;;;;;;;0.25;0.22;;;;;;;6.16;100.00;91629.84;2097494;28;20814;-80
2023/12/13 00:56:36;;;;;;;0.75;0.30;;;;;;;6.09;100.00;91634.59;2104757;28;20047;-79
2023/12/13 00:57:38;;;;;;;1.23;0.10;;;;;;;5.95;100.00;91636.50;2115061;28;20026;-79
2023/12/13 00:58:39;;;;;;;1.83;0.20;;;;;;;6.03;100.00;91634.38;2097285;28;20588;-79
2023/12/13 00:59:40;;;;;;;0.77;0.30;;;;;;;5.96;100.00;91635.31;2097651;28;20040;-78
2023/12/13 01:00:41;;;;;;;0.60;0.28;;;;;;;5.97;100.00;91636.84;2114913;28;20048;-79
2023/12/13 01:01:43;;;;;;;0.20;0.20;;;;;;;6.01;100.00;91639.34;2103239;28;20093;-78
2023/12/13 01:02:44;;;;;;;1.27;0.20;;;;;;;6.09;100.00;91635.34;2089394;28;20465;-80
2023/12/13 01:03:45;;;;;;;0.20;0.20;;;;;;;6.11;100.00;91634.94;2089144;28;20088;-79
2023/12/13 01:04:46;;;;;;;0.40;0.20;;;;;;;6.01;100.00;91631.41;2096292;28;20659;-79
2023/12/13 01:05:48;;;;;;;0.22;0.20;;;;;;;6.06;100.00;91630.91;2108422;28;20019;-79
2023/12/13 01:06:49;;;;;;;0.30;0.20;;;;;;;5.99;100.00;91626.53;2104156;28;20020;-77
2023/12/13 01:07:50;;;;;;;0.25;0.20;;;;;;;6.07;100.00;91629.00;2106085;28;20027;-78
2023/12/13 01:08:51;;;;;;;0.82;0.20;;;;;;;5.98;100.00;91622.41;2115154;28;20027;-80
2023/12/13 01:09:52;;;;;;;0.10;0.10;;;;;;;5.97;100.00;91641.38;2114911;28;20027;-78
2023/12/13 01:10:52;;;;;;;0.35;0.20;;;;;;;5.96;100.00;91639.88;2105945;28;20035;-79
2023/12/13 01:11:53;;;;;;;0.28;0.28;;;;;;;5.93;100.00;91638.09;2097740;28;20060;-81
2023/12/13 01:12:55;;;;;;;0.20;0.20;;;;;;;6.02;100.00;91635.56;2097826;28;20024;-78
2023/12/13 01:13:56;;;;;;;0.65;0.20;;;;;;;5.93;100.00;91636.19;2097597;28;20074;-79
2023/12/13 01:14:57;;;;;;;0.68;0.20;;;;;;;5.86;100.00;91638.25;2097734;28;20671;-77
2023/12/13 01:15:58;;;;;;;0.70;0.10;;;;;;;6.12;100.00;91626.53;2105872;28;20016;-79
2023/12/13 01:16:59;;;;;;;0.17;0.17;;;;;;;6.05;100.00;91624.81;2105846;28;20109;-79
2023/12/13 01:18:00;;;;;;;0.10;0.10;;;;;;;6.00;100.00;91627.28;2094867;28;20454;-79
2023/12/13 01:19:01;;;;;;;0.10;0.10;;;;;;;6.01;100.00;91626.88;2091847;28;20112;-77
2023/12/13 01:20:06;;;;;;;0.10;0.10;;;;;;;6.03;100.00;91629.81;2105934;28;20024;-78
2023/12/13 01:21:07;;;;;;;1.58;0.20;;;;;;;5.99;100.00;91636.41;2101749;28;20031;-80
2023/12/13 01:22:10;;;;;;;2.60;0.20;;;;;;;5.87;100.00;91637.81;2105949;28;20404;-79
2023/12/13 01:23:11;;;;;;;0.47;0.20;;;;;;;5.89;100.00;91632.13;2114930;28;20020;-80
2023/12/13 01:24:12;;;;;;;0.15;0.15;;;;;;;5.90;100.00;91639.66;2114968;28;20026;-78
2023/12/13 01:25:13;;;;;;;0.17;0.17;;;;;;;5.86;100.00;91639.00;2105847;28;20028;-79
2023/12/13 01:26:14;;;;;;;1.10;0.10;;;;;;;5.84;100.00;91640.56;2105738;28;20027;-79
2023/12/13 01:27:15;;;;;;;0.20;0.20;;;;;;;5.79;100.00;91639.97;2114808;28;20874;-80
2023/12/13 01:28:16;;;;;;;0.43;0.20;;;;;;;5.75;100.00;91643.84;2106019;28;20031;-78
2023/12/13 01:29:18;;;;;;;0.15;0.15;;;;;;;5.75;100.00;91644.59;2089387;28;20194;-78
2023/12/13 01:30:19;;;;;;;0.15;0.15;;;;;;;5.73;100.00;91644.28;2097573;28;20689;-78
2023/12/13 01:31:20;;;;;;;0.10;0.10;;;;;;;5.70;100.00;91641.72;2097086;28;20041;-79
2023/12/13 01:32:21;;;;;;;0.47;0.20;;;;;;;5.68;100.00;91647.44;2097383;28;20116;-78
2023/12/13 01:33:22;;;;;;;0.30;0.20;;;;;;;5.84;100.00;91645.88;2105642;28;20055;-79
2023/12/13 01:34:22;;;;;;;0.20;0.20;;;;;;;5.92;100.00;91647.94;2114814;28;20050;-80
2023/12/13 01:35:23;;;;;;;0.10;0.10;;;;;;;5.79;100.00;91665.69;2114501;28;20027;-77
2023/12/13 01:36:24;;;;;;;0.10;0.10;;;;;;;5.87;100.00;91661.69;2112766;28;20059;-79
2023/12/13 01:37:26;;;;;;;0.35;0.10;;;;;;;5.79;100.00;91657.75;2110516;28;20024;-78
2023/12/13 01:38:27;;;;;;;0.73;0.20;;;;;;;5.79;100.00;91657.75;2105699;28;20020;-77
2023/12/13 01:39:28;;;;;;;0.30;0.10;;;;;;;5.86;100.00;91651.53;2105657;28;20030;-79
2023/12/13 01:40:29;;;;;;;0.22;0.22;;;;;;;5.87;100.00;91656.38;2105782;28;20047;-79
2023/12/13 01:41:30;;;;;;;0.20;0.20;;;;;;;5.86;100.00;91654.91;2114857;28;20024;-78
2023/12/13 01:42:31;;;;;;;0.30;0.30;;;;;;;5.89;100.00;91658.63;2114696;28;20024;-80
2023/12/13 01:43:31;;;;;;;0.17;0.17;;;;;;;5.78;100.00;91656.25;2105971;28;20031;-78
2023/12/13 01:44:35;;;;;;;1.90;0.22;;;;;;;5.90;100.00;91646.84;2101789;28;20442;-78
2023/12/13 01:45:36;;;;;;;0.28;0.10;;;;;;;5.87;100.00;91653.00;2113548;28;20051;-78
2023/12/13 01:46:39;;;;;;;0.17;0.17;;;;;;;5.91;100.00;91651.72;2105699;28;20547;-79
2023/12/13 01:47:40;;;;;;;0.15;0.15;;;;;;;5.86;100.00;91654.16;2105844;28;20031;-79
2023/12/13 01:48:41;;;;;;;0.10;0.10;;;;;;;5.90;100.00;91644.94;2105587;28;20511;-77
2023/12/13 01:49:44;;;;;;;0.85;0.20;;;;;;;5.93;100.00;91648.72;2105651;28;20024;-80
2023/12/13 01:50:45;;;;;;;0.30;0.30;;;;;;;5.92;100.00;91650.59;2106305;28;20442;-78
2023/12/13 01:51:46;;;;;;;0.20;0.20;;;;;;;5.82;100.00;91644.41;2114524;28;20528;-78
2023/12/13 01:52:47;;;;;;;0.20;0.20;;;;;;;5.88;100.00;91644.59;2114674;28;20034;-78
2023/12/13 01:53:48;;;;;;;2.05;0.30;;;;;;;5.96;100.00;91647.84;2097170;28;20021;-77
2023/12/13 01:54:50;;;;;;;0.70;0.20;;;;;;;6.00;100.00;91646.56;2097345;28;20050;-80
2023/12/13 01:55:53;;;;;;;0.10;0.10;;;;;;;6.01;100.00;91645.44;2114537;28;20019;-78
2023/12/13 01:56:55;;;;;;;0.20;0.20;;;;;;;6.00;100.00;91643.19;2096992;28;20024;-79
2023/12/13 01:57:57;;;;;;;0.40;0.10;;;;;;;5.98;100.00;91643.63;2097058;28;20024;-80
2023/12/13 01:58:58;;;;;;;0.45;0.10;;;;;;;5.99;100.00;91636.41;2105329;28;20487;-78
2023/12/13 01:59:59;;;;;;;0.52;0.20;;;;;;;5.95;100.00;91644.44;2089168;28;20128;-78
2023/12/13 02:01:03;;;;;;;0.55;0.20;;;;;;;5.96;100.00;91637.97;2097257;28;20028;-78
2023/12/13 02:02:04;;;;;;;0.10;0.10;;;;;;;5.96;100.00;91632.66;2105513;28;20020;-80
2023/12/13 02:03:08;;;;;;;0.30;0.20;;;;;;;5.96;100.00;91630.03;2096952;28;20087;-79
2023/12/13 02:04:14;;;;;;;0.15;0.10;;;;;;;5.94;100.00;91629.72;2103089;28;20016;-80
2023/12/13 02:05:17;;;;;;;0.20;0.17;;;;;;;5.89;100.00;91632.13;2105130;28;20024;-79
2023/12/13 02:06:19;;;;;;;0.30;0.20;;;;;;;5.82;100.00;91622.44;2096925;28;20029;-78
2023/12/13 02:07:21;;;;;;;0.30;0.30;;;;;;;5.98;100.00;91614.44;2095502;28;20113;-79
2023/12/13 02:08:22;;;;;;;0.20;0.20;;;;;;;5.94;100.00;91615.72;2105120;28;20123;-78
2023/12/13 02:09:23;;;;;;;0.10;0.10;;;;;;;5.87;100.00;91613.22;2088976;28;20091;-79
2023/12/13 02:10:24;;;;;;;0.20;0.20;;;;;;;5.87;100.00;91606.00;2102985;28;20081;-79
2023/12/13 02:11:25;;;;;;;1.95;0.20;;;;;;;5.84;100.00;91596.28;2097372;28;20109;-79
2023/12/13 02:12:27;;;;;;;0.10;0.10;;;;;;;5.68;100.00;91599.00;2105356;28;20023;-78
2023/12/13 02:13:28;;;;;;;0.20;0.20;;;;;;;5.69;100.00;91595.16;2105865;28;20050;-78
2023/12/13 02:14:29;;;;;;;0.20;0.20;;;;;;;5.75;100.00;91598.78;2098956;28;20021;-79
2023/12/13 02:15:35;;;;;;;0.90;0.20;;;;;;;5.78;100.00;91600.59;2088935;28;20573;-79
2023/12/13 02:16:37;;;;;;;0.38;0.38;;;;;;;5.79;100.00;91596.78;2097292;28;20040;-78
2023/12/13 02:17:51;;;;;;;0.20;0.20;;;;;;;5.85;100.00;91597.00;2105330;28;20024;-80
2023/12/13 02:18:52;;;;;;;0.35;0.30;;;;;;;5.71;100.00;91593.59;2090780;28;20122;-79
2023/12/13 02:19:53;;;;;;;1.25;0.30;;;;;;;5.71;100.00;91596.25;2096732;28;20199;-78
2023/12/13 02:20:54;;;;;;;0.38;0.20;;;;;;;5.73;100.00;91599.22;2104368;28;20425;-79
2023/12/13 02:21:55;;;;;;;0.25;0.20;;;;;;;5.73;100.00;91593.16;2088648;28;20028;-78
2023/12/13 02:22:56;;;;;;;0.20;0.20;;;;;;;5.90;100.00;91589.25;2097175;28;20012;-78
2023/12/13 02:24:01;;;;;;;0.85;0.35;;;;;;;5.86;100.00;91595.84;2097082;28;20021;-80
2023/12/13 02:25:05;;;;;;;2.53;0.30;;;;;;;5.89;100.00;91600.31;2102819;28;20099;-81
2023/12/13 02:26:10;;;;;;;1.55;0.30;;;;;;;5.97;100.00;91596.28;2105138;28;20040;-78
2023/12/13 02:27:11;;;;;;;0.70;0.13;;;;;;;5.99;100.00;91584.09;2105453;28;20048;-79
2023/12/13 02:28:13;;;;;;;1.17;0.20;;;;;;;5.98;100.00;91595.88;2105395;28;20576;-79
2023/12/13 02:29:14;;;;;;;1.40;0.35;;;;;;;5.94;100.00;91595.25;2097186;28;20472;-79
2023/12/13 02:30:15;;;;;;;0.17;0.17;;;;;;;5.78;100.00;91593.38;2097306;28;20028;-79
2023/12/13 02:31:16;;;;;;;0.57;0.30;;;;;;;5.88;100.00;91593.50;2105610;28;20135;-79
2023/12/13 02:32:17;;;;;;;0.15;0.15;;;;;;;5.87;100.00;91592.75;2105473;28;20487;-79
2023/12/13 02:33:23;;;;;;;0.75;0.20;;;;;;;5.87;100.00;91592.00;2097164;28;20055;-79
2023/12/13 02:34:24;;;;;;;0.20;0.20;;;;;;;5.95;100.00;91588.75;2104433;28;20063;-79
2023/12/13 02:35:25;;;;;;;1.52;0.30;;;;;;;5.93;100.00;91593.03;2105641;28;20054;-79
2023/12/13 02:36:26;;;;;;;1.10;0.30;;;;;;;5.91;100.00;91595.31;2114125;28;20077;-79
2023/12/13 02:37:27;;;;;;;1.23;0.28;;;;;;;5.90;100.00;91596.47;2114441;28;20027;-77
2023/12/13 02:38:29;;;;;;;0.17;0.17;;;;;;;5.88;100.00;91591.59;2105519;28;20028;-78
2023/12/13 02:39:30;;;;;;;0.17;0.17;;;;;;;5.82;100.00;91587.97;2105697;28;20099;-79
2023/12/13 02:40:31;;;;;;;0.55;0.30;;;;;;;5.87;100.00;91586.72;2105596;28;20024;-79
2023/12/13 02:41:32;;;;;;;1.30;0.40;;;;;;;5.90;100.00;91583.97;2096800;28;20391;-80
2023/12/13 02:42:33;;;;;;;2.40;0.40;;;;;;;6.01;100.00;91584.44;2096849;28;20046;-78
2023/12/13 02:43:34;;;;;;;0.75;0.40;;;;;;;6.07;100.00;91579.34;2088737;28;20031;-79
2023/12/13 02:44:35;;;;;;;0.75;0.20;;;;;;;6.00;100.00;91577.63;2088895;28;20021;-77
2023/12/13 02:45:36;;;;;;;2.67;0.50;;;;;;;5.98;100.00;91577.31;2105550;28;20069;-79
2023/12/13 02:46:37;;;;;;;2.25;0.50;;;;;;;5.93;100.00;91580.50;2105586;28;20105;-78
2023/12/13 02:47:42;;;;;;;2.40;0.47;;;;;;;6.09;100.00;91578.91;2096864;28;20452;-79
2023/12/13 02:48:43;;;;;;;1.67;0.40;;;;;;;6.11;100.00;91576.59;2105224;28;20081;-79
2023/12/13 02:49:43;;;;;;;1.42;0.57;;;;;;;6.19;100.00;91569.88;2105317;28;20065;-80
2023/12/13 02:50:45;;;;;;;1.25;0.45;;;;;;;6.24;100.00;91569.34;2104245;28;20041;-81
2023/12/13 02:51:46;;;;;;;2.22;0.40;;;;;;;6.11;100.00;91566.72;2097228;28;20082;-78
2023/12/13 02:52:47;;;;;;;2.25;0.43;;;;;;;6.11;100.00;91556.09;2097161;28;20021;-78
2023/12/13 02:53:48;;;;;;;1.67;0.40;;;;;;;6.16;100.00;91557.47;2089064;28;20024;-78
2023/12/13 02:54:49;;;;;;;1.20;0.50;;;;;;;6.11;100.00;91569.38;2088927;28;20028;-81
2023/12/13 02:55:50;;;;;;;3.13;0.40;;;;;;;6.08;100.00;91564.91;2097200;28;20562;-78
2023/12/13 02:56:51;;;;;;;1.75;0.60;;;;;;;6.05;100.00;91565.75;2088806;28;20060;-80
2023/12/13 02:57:59;;;;;;;1.98;0.30;;;;;;;6.13;100.00;91567.00;2105363;28;20042;-79
2023/12/13 02:59:00;;;;;;;1.27;0.50;;;;;;;6.07;100.00;91563.41;2105628;28;20071;-77
2023/12/13 03:00:01;;;;;;;2.28;0.35;;;;;;;5.99;100.00;91562.13;2097328;28;20028;-78
2023/12/13 03:01:02;;;;;;;0.55;0.43;;;;;;;5.86;100.00;91567.41;2105600;28;20031;-79
2023/12/13 03:02:03;;;;;;;1.23;0.30;;;;;;;5.82;100.00;91569.41;2105705;28;20063;-78
2023/12/13 03:03:04;;;;;;;2.17;0.85;;;;;;;5.77;100.00;91568.03;2105361;28;20110;-80
2023/12/13 03:04:05;;;;;;;2.47;0.85;;;;;;;5.92;100.00;91554.38;2097274;28;20029;-78
2023/12/13 03:05:07;;;;;;;2.13;0.80;;;;;;;5.91;100.00;91550.22;2097101;28;20029;-81
2023/12/13 03:06:09;;;;;;;1.20;0.50;;;;;;;5.91;100.00;91544.94;2092108;28;20056;-79
2023/12/13 03:07:10;;;;;;;2.58;0.65;;;;;;;5.87;100.00;91554.88;2087978;28;20021;-79
2023/12/13 03:08:14;;;;;;;1.77;0.82;;;;;;;5.80;100.00;91550.56;2100965;28;20043;-78
2023/12/13 03:09:15;;;;;;;3.17;0.80;;;;;;;5.73;100.00;91546.19;2089206;28;20067;-79
2023/12/13 03:10:16;;;;;;;6.13;0.80;;;;;;;5.73;100.00;91553.41;2082812;28;20068;-78
2023/12/13 03:11:20;;;;;;;0.90;0.50;;;;;;;5.66;100.00;91551.69;2098390;28;20385;-80
2023/12/13 03:12:22;;;;;;;0.85;0.43;;;;;;;5.66;100.00;91548.28;2091178;28;20052;-79
2023/12/13 03:13:23;;;;;;;4.22;0.63;;;;;;;5.67;100.00;91555.84;2082536;28;20044;-77
2023/12/13 03:14:25;;;;;;;4.30;1.58;;;;;;;5.74;100.00;91542.38;2084344;28;20572;-80
2023/12/13 03:15:27;;;;;;;9.88;3.53;;;;;;;5.73;100.00;91537.50;2083349;28;20091;-78
2023/12/13 03:16:28;;;;;;;6.43;2.70;;;;;;;5.65;100.00;91536.22;2092692;28;20021;-79
2023/12/13 03:17:29;;;;;;;4.57;1.40;;;;;;;5.62;100.00;91540.47;2088133;28;20033;-78
2023/12/13 03:18:30;;;;;;;3.05;1.38;;;;;;;5.65;100.00;91526.34;2089907;28;20139;-78
2023/12/13 03:19:31;;;;;;;2.63;0.75;;;;;;;5.65;100.00;91526.34;2088730;28;20413;-78
2023/12/13 03:20:32;;;;;;;2.58;0.77;;;;;;;5.69;100.00;91528.91;2085751;28;20029;-79
2023/12/13 03:21:33;;;;;;;1.95;0.50;;;;;;;5.68;100.00;91536.13;2092616;28;20059;-77
2023/12/13 03:22:34;;;;;;;3.08;0.70;;;;;;;5.56;100.00;91534.94;2097090;28;20020;-79
2023/12/13 03:23:35;;;;;;;1.83;0.60;;;;;;;5.60;100.00;91542.78;2088818;28;20029;-78
2023/12/13 03:24:36;;;;;;;1.25;0.30;;;;;;;5.52;100.00;91546.78;2100315;28;20035;-80
2023/12/13 03:25:37;;;;;;;2.35;0.50;;;;;;;5.51;100.00;91540.00;2099654;28;20024;-79
2023/12/13 03:26:38;;;;;;;3.05;0.50;;;;;;;5.53;100.00;91541.09;2105237;28;20024;-79
2023/12/13 03:27:42;;;;;;;2.00;0.55;;;;;;;5.47;100.00;91540.09;2105293;28;20028;-80
2023/12/13 03:28:43;;;;;;;1.10;0.45;;;;;;;5.72;100.00;91541.31;2106642;28;20473;-81
2023/12/13 03:29:44;;;;;;;1.15;0.40;;;;;;;5.77;100.00;91536.22;2098370;28;20054;-80
2023/12/13 03:30:45;;;;;;;4.15;0.50;;;;;;;5.74;100.00;91534.41;2098013;28;20066;-78
2023/12/13 03:31:46;;;;;;;2.08;0.40;;;;;;;5.65;100.00;91530.91;2115847;28;20485;-78
2023/12/13 03:32:47;;;;;;;2.97;0.40;;;;;;;5.57;100.00;91535.66;2115526;28;20023;-81
2023/12/13 03:33:47;;;;;;;1.27;0.40;;;;;;;5.60;100.00;91534.84;2115432;28;20028;-79
2023/12/13 03:34:48;;;;;;;1.15;0.43;;;;;;;5.54;100.00;91534.63;2098191;28;20031;-80
2023/12/13 03:35:49;;;;;;;0.52;0.30;;;;;;;5.56;100.00;91534.94;2089814;28;20047;-79
2023/12/13 03:36:50;;;;;;;1.20;0.40;;;;;;;5.66;100.00;91535.78;2098252;28;20028;-79
2023/12/13 03:37:51;;;;;;;1.48;0.47;;;;;;;5.65;100.00;91525.59;2098195;28;20040;-80
2023/12/13 03:38:53;;;;;;;0.40;0.40;;;;;;;5.61;100.00;91530.28;2098324;28;20024;-80
2023/12/13 03:39:54;;;;;;;0.85;0.35;;;;;;;5.71;100.00;91532.63;2106773;28;20490;-78
2023/12/13 03:40:54;;;;;;;0.70;0.40;;;;;;;5.72;100.00;91531.44;2106544;28;20020;-78
2023/12/13 03:41:55;;;;;;;1.85;0.25;;;;;;;5.66;100.00;91535.03;2097641;28;20085;-79
2023/12/13 03:42:56;;;;;;;2.05;0.50;;;;;;;5.55;100.00;91530.06;2106477;28;20054;-78
2023/12/13 03:43:57;;;;;;;1.60;0.32;;;;;;;5.54;100.00;91529.31;2109374;28;20038;-80
2023/12/13 03:44:58;;;;;;;0.43;0.20;;;;;;;5.57;100.00;91533.00;2098253;28;20504;-79
2023/12/13 03:45:59;;;;;;;2.47;0.40;;;;;;;5.64;100.00;91524.13;2098101;28;20048;-79
2023/12/13 03:47:00;;;;;;;2.72;1.45;;;;;;;5.51;100.00;91524.84;2098249;28;20063;-79
2023/12/13 03:48:01;;;;;;;2.83;1.00;;;;;;;5.58;100.00;91526.56;2097991;28;20048;-79
2023/12/13 03:49:03;;;;;;;1.98;0.82;;;;;;;5.66;100.00;91525.19;2098221;28;20020;-79
2023/12/13 03:50:04;;;;;;;0.60;0.50;;;;;;;5.65;100.00;91520.31;2097989;28;20061;-79
2023/12/13 03:51:05;;;;;;;1.15;0.57;;;;;;;5.62;100.00;91513.19;2096210;28;20873;-78
2023/12/13 03:52:07;;;;;;;0.88;0.60;;;;;;;5.53;100.00;91511.94;2106484;28;20035;-79
2023/12/13 03:53:08;;;;;;;0.95;0.55;;;;;;;5.50;100.00;91512.78;2106565;28;20020;-79
2023/12/13 03:54:09;;;;;;;2.90;0.50;;;;;;;5.41;100.00;91510.00;2098256;28;20028;-79
2023/12/13 03:55:12;;;;;;;2.72;0.40;;;;;;;5.35;100.00;91513.59;2098229;28;20032;-79
2023/12/13 03:56:14;;;;;;;1.27;0.52;;;;;;;5.39;100.00;91512.31;2096498;28;20048;-78
2023/12/13 03:57:15;;;;;;;0.93;0.40;;;;;;;5.51;100.00;91508.97;2097612;28;20115;-77
2023/12/13 03:58:16;;;;;;;0.68;0.30;;;;;;;5.81;100.00;91512.25;2106389;28;20538;-79
2023/12/13 03:59:24;;;;;;;0.85;0.40;;;;;;;5.74;100.00;91515.84;2098189;28;20028;-78
2023/12/13 04:00:25;;;;;;;3.15;0.60;;;;;;;5.52;100.00;91515.00;2106435;28;20031;-77
2023/12/13 04:01:26;;;;;;;1.95;0.50;;;;;;;5.49;100.00;91523.81;2090541;28;20020;-80
2023/12/13 04:02:27;;;;;;;1.10;0.38;;;;;;;5.57;100.00;91527.72;2089872;28;20078;-79
2023/12/13 04:03:28;;;;;;;1.50;0.50;;;;;;;5.74;100.00;91518.50;2106351;28;20028;-79
2023/12/13 04:04:29;;;;;;;1.65;0.38;;;;;;;5.69;100.00;91513.00;2115427;28;20062;-78
2023/12/13 04:05:30;;;;;;;2.78;0.50;;;;;;;5.67;100.00;91515.34;2106232;28;20020;-78
2023/12/13 04:06:31;;;;;;;0.52;0.30;;;;;;;5.58;100.00;91515.97;2106369;28;20024;-80
2023/12/13 04:07:31;;;;;;;0.75;0.50;;;;;;;5.62;100.00;91516.63;2115476;28;20460;-77
2023/12/13 04:08:32;;;;;;;0.95;0.30;;;;;;;5.82;100.00;91516.41;2098236;28;20058;-78
2023/12/13 04:09:33;;;;;;;0.65;0.35;;;;;;;5.70;100.00;91517.13;2098141;28;20507;-78
2023/12/13 04:10:34;;;;;;;4.68;0.30;;;;;;;5.74;100.00;91518.50;2115557;28;20048;-79
2023/12/13 04:11:35;;;;;;;0.63;0.20;;;;;;;5.67;100.00;91507.38;2115305;28;20019;-78
2023/12/13 04:12:36;;;;;;;1.23;0.40;;;;;;;5.65;100.00;91507.06;2115383;28;20053;-78
2023/12/13 04:13:37;;;;;;;0.43;0.40;;;;;;;5.50;100.00;91507.47;2114839;28;20027;-78
2023/12/13 04:14:38;;;;;;;1.65;0.40;;;;;;;5.55;100.00;91508.84;2114826;28;20047;-80
2023/12/13 04:15:39;;;;;;;0.40;0.40;;;;;;;5.29;100.00;91508.81;2106499;28;20027;-78
2023/12/13 04:16:40;;;;;;;2.33;0.40;;;;;;;5.33;100.00;91507.97;2106461;28;20506;-79
2023/12/13 04:17:41;;;;;;;2.05;0.35;;;;;;;5.41;100.00;91510.00;2105930;28;20056;-78
2023/12/13 04:18:42;;;;;;;0.95;0.30;;;;;;;5.41;100.00;91510.00;2097719;28;20024;-80
2023/12/13 04:19:43;;;;;;;0.28;0.28;;;;;;;5.40;100.00;91507.75;2106244;28;20031;-78
2023/12/13 04:20:44;;;;;;;0.80;0.40;;;;;;;5.36;100.00;91515.84;2105522;28;20035;-78
2023/12/13 04:21:45;;;;;;;0.30;0.30;;;;;;;5.32;100.00;91506.50;2106219;28;20043;-78
2023/12/13 04:22:47;;;;;;;6.30;0.40;;;;;;;5.25;100.00;91508.19;2097923;28;20025;-79
2023/12/13 04:23:48;;;;;;;2.15;0.50;;;;;;;5.12;100.00;91509.31;2098121;28;20066;-80
2023/12/13 04:24:49;;;;;;;0.32;0.30;;;;;;;5.06;100.00;91506.44;2098007;28;20559;-80
2023/12/13 04:25:50;;;;;;;1.00;0.40;;;;;;;5.13;100.00;91506.22;2105993;28;20400;-79
2023/12/13 04:26:51;;;;;;;2.55;0.40;;;;;;;5.30;100.00;91510.28;2105855;28;20032;-80
2023/12/13 04:27:52;;;;;;;1.15;0.52;;;;;;;5.42;100.00;91508.84;2105912;28;20381;-79
2023/12/13 04:28:53;;;;;;;0.30;0.30;;;;;;;5.34;100.00;91499.59;2115338;28;20080;-79
2023/12/13 04:29:54;;;;;;;0.95;0.60;;;;;;;5.23;100.00;91507.13;2115392;28;20102;-78
2023/12/13 04:30:55;;;;;;;0.55;0.40;;;;;;;5.13;100.00;91500.19;2106090;28;20503;-80
2023/12/13 04:31:58;;;;;;;3.38;0.55;;;;;;;5.24;100.00;91505.97;2097294;28;20027;-78
2023/12/13 04:32:59;;;;;;;0.45;0.43;;;;;;;5.14;100.00;91504.34;2104316;28;20039;-80
2023/12/13 04:34:00;;;;;;;2.28;0.60;;;;;;;5.16;100.00;91502.75;2104049;28;20568;-78
2023/12/13 04:35:01;;;;;;;0.68;0.50;;;;;;;5.21;100.00;91502.22;2103812;28;20028;-79
2023/12/13 04:36:02;;;;;;;1.38;0.40;;;;;;;5.25;100.00;91504.78;2111443;28;20016;-79
2023/12/13 04:37:04;;;;;;;1.67;0.50;;;;;;;5.32;100.00;91496.66;2113037;28;20028;-79
2023/12/13 04:38:06;;;;;;;2.33;0.70;;;;;;;5.25;100.00;91494.19;2113211;28;20034;-80
2023/12/13 04:39:07;;;;;;;0.80;0.47;;;;;;;5.14;100.00;91491.13;2100908;28;20036;-79
2023/12/13 04:40:08;;;;;;;3.08;0.40;;;;;;;5.09;100.00;91495.00;2104603;28;20420;-79
2023/12/13 04:41:10;;;;;;;0.30;0.30;;;;;;;5.15;100.00;91480.09;2106980;28;20039;-79
2023/12/13 04:42:10;;;;;;;0.60;0.40;;;;;;;5.26;100.00;91485.06;2101355;28;20457;-80
2023/12/13 04:43:11;;;;;;;1.08;0.40;;;;;;;5.36;100.00;91480.66;2097710;28;20544;-80
2023/12/13 04:44:12;;;;;;;1.05;0.60;;;;;;;5.28;100.00;91488.78;2106030;28;20470;-80
2023/12/13 04:45:13;;;;;;;0.95;0.82;;;;;;;5.22;100.00;91477.25;2106737;28;20043;-78
2023/12/13 04:46:15;;;;;;;0.75;0.73;;;;;;;5.34;100.00;91483.72;2106565;28;20016;-80
2023/12/13 04:47:16;;;;;;;1.05;0.47;;;;;;;5.37;100.00;91482.88;2106524;28;20846;-79
2023/12/13 04:48:17;;;;;;;0.45;0.40;;;;;;;5.35;100.00;91477.25;2111251;28;20032;-78
2023/12/13 04:49:18;;;;;;;5.13;0.80;;;;;;;5.25;100.00;91486.25;2097626;28;20051;-80